Time;durP1;ratioP1;P1;durP2;ratioP2;P2;SDS_P1;SDS_P2;PMS_P1;PMS_P2;Temp;Humidity;BMP_temperature;BMP_pressure;BME280_temperature;BME280_humidity;BME280_pressure;Samples;Min_cycle;Max_cycle;Signal;HPM_P1;HPM_P2
2021/10/13 00:02:19;;;;;;;15.77;6.57;;;5.80;1.00;;;;;;5035805;28;20279;-62
2021/10/13 00:04:47;;;;;;;12.50;6.33;;;5.80;1.00;;;;;;5035589;28;20569;-62
2021/10/13 00:07:13;;;;;;;16.27;5.90;;;5.80;1.00;;;;;;5035407;28;20222;-63
2021/10/13 00:09:40;;;;;;;18.90;6.30;;;5.80;1.00;;;;;;5035488;28;20234;-63
2021/10/13 00:12:06;;;;;;;13.53;6.53;;;5.90;1.00;;;;;;5035240;28;20259;-63
2021/10/13 00:14:33;;;;;;;16.43;6.13;;;5.90;1.00;;;;;;5035064;28;20671;-63
2021/10/13 00:17:05;;;;;;;21.80;6.27;;;5.90;1.00;;;;;;5035414;28;20206;-63
2021/10/13 00:19:32;;;;;;;20.57;6.73;;;5.90;1.00;;;;;;5035422;28;20227;-63
2021/10/13 00:22:00;;;;;;;15.93;6.80;;;6.00;1.00;;;;;;5035221;28;20264;-62
2021/10/13 00:24:28;;;;;;;18.47;6.27;;;6.00;1.00;;;;;;5034975;28;20607;-62
2021/10/13 00:26:54;;;;;;;13.73;6.50;;;6.00;1.00;;;;;;5035034;28;20222;-63
2021/10/13 00:29:22;;;;;;;21.40;6.53;;;5.90;1.00;;;;;;5035062;28;20222;-62
2021/10/13 00:31:48;;;;;;;14.53;6.70;;;5.90;1.00;;;;;;5035227;28;20213;-63
2021/10/13 00:34:16;;;;;;;15.13;6.93;;;5.90;1.00;;;;;;5035108;28;20732;-61
2021/10/13 00:36:42;;;;;;;16.90;6.60;;;5.90;1.00;;;;;;5034671;28;20737;-62
2021/10/13 00:39:10;;;;;;;14.10;6.90;;;5.90;1.00;;;;;;5034936;28;20206;-61
2021/10/13 00:41:37;;;;;;;13.50;6.63;;;5.90;1.00;;;;;;5034884;28;20214;-62
2021/10/13 00:44:05;;;;;;;15.17;7.20;;;5.90;1.00;;;;;;5035148;28;20267;-62
2021/10/13 00:46:31;;;;;;;14.57;7.50;;;5.90;1.00;;;;;;5034664;28;20206;-61
2021/10/13 00:48:58;;;;;;;17.27;8.00;;;5.90;1.00;;;;;;5034647;28;20278;-62
2021/10/13 00:51:25;;;;;;;20.23;8.00;;;6.00;1.00;;;;;;5034491;28;20678;-61
2021/10/13 00:53:52;;;;;;;16.57;7.97;;;6.00;1.00;;;;;;5034682;28;20802;-62
2021/10/13 00:56:20;;;;;;;16.87;8.57;;;6.00;1.00;;;;;;5034378;28;20297;-63
2021/10/13 00:58:46;;;;;;;14.47;8.73;;;6.00;1.00;;;;;;5034783;28;20272;-62
2021/10/13 01:01:20;;;;;;;20.23;9.20;;;6.00;1.00;;;;;;5034387;28;20284;-63
2021/10/13 01:03:54;;;;;;;22.53;9.17;;;6.00;1.00;;;;;;5034623;28;20210;-63
2021/10/13 01:06:26;;;;;;;20.23;9.30;;;6.00;1.00;;;;;;5034224;28;20201;-62
2021/10/13 01:09:01;;;;;;;18.13;9.70;;;6.00;1.00;;;;;;5034569;28;20249;-63
2021/10/13 01:11:40;;;;;;;22.90;10.23;;;5.90;1.00;;;;;;5034559;28;20236;-63
2021/10/13 01:14:19;;;;;;;27.60;11.10;;;5.90;1.00;;;;;;5034315;28;20206;-62
2021/10/13 01:16:55;;;;;;;25.03;11.63;;;5.90;1.00;;;;;;5034184;28;20256;-61
2021/10/13 01:19:37;;;;;;;28.77;11.33;;;5.90;1.00;;;;;;5034217;28;20226;-63
2021/10/13 01:22:21;;;;;;;22.17;10.83;;;5.90;1.00;;;;;;5034188;28;20909;-63
2021/10/13 01:25:02;;;;;;;20.80;10.63;;;5.90;1.00;;;;;;5033617;28;20213;-62
2021/10/13 01:27:53;;;;;;;22.30;12.63;;;5.90;1.00;;;;;;5034320;28;20278;-63
2021/10/13 01:30:21;;;;;;;25.97;11.97;;;5.90;1.00;;;;;;5033963;28;20226;-61
2021/10/13 01:32:55;;;;;;;24.37;13.10;;;5.80;1.00;;;;;;5034064;28;20256;-62
2021/10/13 01:35:23;;;;;;;24.33;13.20;;;5.80;1.00;;;;;;5033511;28;20205;-62
2021/10/13 01:37:54;;;;;;;26.57;14.70;;;5.80;1.00;;;;;;5034209;28;20206;-63
2021/10/13 01:40:26;;;;;;;25.90;14.80;;;5.80;1.00;;;;;;5033708;28;20284;-63
2021/10/13 01:42:56;;;;;;;34.13;15.10;;;5.70;1.00;;;;;;5033967;28;20206;-63
2021/10/13 01:45:24;;;;;;;28.00;14.57;;;5.60;1.00;;;;;;5033273;28;20678;-62
2021/10/13 01:47:52;;;;;;;30.77;15.00;;;5.60;1.00;;;;;;5033480;28;20226;-61
2021/10/13 01:50:19;;;;;;;27.73;14.33;;;5.60;1.00;;;;;;5033735;28;20222;-62
2021/10/13 01:52:48;;;;;;;25.73;13.57;;;5.60;1.00;;;;;;5033730;28;20210;-62
2021/10/13 01:55:16;;;;;;;29.97;15.73;;;5.70;1.00;;;;;;5033216;28;20213;-62
2021/10/13 01:57:46;;;;;;;29.10;13.77;;;5.60;1.00;;;;;;5033447;28;20260;-62
2021/10/13 02:00:15;;;;;;;30.63;14.63;;;5.60;1.00;;;;;;5033349;28;20234;-62
2021/10/13 02:02:44;;;;;;;31.33;14.87;;;5.70;1.00;;;;;;5033604;28;20206;-63
2021/10/13 02:05:14;;;;;;;29.60;14.37;;;5.70;1.00;;;;;;5033095;28;20640;-61
2021/10/13 02:07:42;;;;;;;26.00;14.73;;;5.70;1.00;;;;;;5032603;28;20805;-62
2021/10/13 02:10:13;;;;;;;34.80;15.00;;;5.70;1.00;;;;;;5033343;28;20233;-63
2021/10/13 02:12:44;;;;;;;31.43;16.00;;;5.70;1.00;;;;;;5033202;28;20745;-62
2021/10/13 02:15:12;;;;;;;23.17;14.50;;;5.70;1.00;;;;;;5032670;28;20210;-63
2021/10/13 02:17:45;;;;;;;29.20;13.97;;;5.70;1.00;;;;;;5033261;28;20290;-62
2021/10/13 02:20:12;;;;;;;21.97;13.53;;;5.70;1.00;;;;;;5032844;28;20586;-61
2021/10/13 02:22:43;;;;;;;22.73;13.53;;;5.70;1.00;;;;;;5033073;28;20210;-63
2021/10/13 02:25:10;;;;;;;22.20;13.10;;;5.70;1.00;;;;;;5032537;28;20210;-62
2021/10/13 02:27:44;;;;;;;28.97;13.93;;;5.80;1.00;;;;;;5032804;28;20234;-62
2021/10/13 02:30:11;;;;;;;28.43;14.20;;;5.70;1.00;;;;;;5032908;28;20230;-62
2021/10/13 02:32:39;;;;;;;27.47;14.37;;;5.70;1.00;;;;;;5032942;28;20268;-62
2021/10/13 02:35:07;;;;;;;28.23;14.83;;;5.70;3.80;;;;;;5032707;28;20206;-62
2021/10/13 02:37:34;;;;;;;28.17;13.77;;;5.70;12.90;;;;;;5032605;28;20249;-63
2021/10/13 02:40:01;;;;;;;27.63;14.43;;;5.70;13.50;;;;;;5032414;28;20318;-63
2021/10/13 02:42:28;;;;;;;24.20;13.37;;;5.80;14.70;;;;;;5032742;28;20284;-62
2021/10/13 02:44:54;;;;;;;30.43;13.70;;;5.80;22.50;;;;;;5032394;28;20261;-63
2021/10/13 02:47:28;;;;;;;26.00;14.50;;;6.00;34.80;;;;;;5032565;28;20210;-63
2021/10/13 02:50:06;;;;;;;31.53;14.13;;;6.00;34.20;;;;;;5032548;28;20234;-63
2021/10/13 02:52:40;;;;;;;36.00;17.07;;;6.10;40.10;;;;;;5032394;28;20668;-62
2021/10/13 02:55:09;;;;;;;24.57;15.40;;;6.10;49.80;;;;;;5032167;28;20205;-62
2021/10/13 02:57:41;;;;;;;34.07;15.57;;;6.20;51.60;;;;;;5032419;28;20260;-63
2021/10/13 03:00:10;;;;;;;38.30;16.87;;;6.20;52.80;;;;;;5032476;28;20273;-61
2021/10/13 03:02:43;;;;;;;31.27;16.50;;;6.20;53.10;;;;;;5032434;28;20210;-62
2021/10/13 03:05:13;;;;;;;35.20;16.37;;;6.10;53.00;;;;;;5032206;28;20261;-62
2021/10/13 03:07:45;;;;;;;30.80;16.03;;;6.10;52.40;;;;;;5032376;28;20265;-62
2021/10/13 03:10:13;;;;;;;29.97;15.23;;;6.10;56.40;;;;;;5032213;28;20289;-63
2021/10/13 03:12:42;;;;;;;37.43;15.77;;;6.10;47.30;;;;;;5032296;28;20345;-62
2021/10/13 03:15:10;;;;;;;33.77;15.40;;;6.10;34.50;;;;;;5031738;28;20249;-63
2021/10/13 03:17:38;;;;;;;28.33;14.63;;;6.10;32.80;;;;;;5031544;28;20249;-62
2021/10/13 03:20:06;;;;;;;28.40;15.37;;;6.00;24.30;;;;;;5031465;28;20234;-61
2021/10/13 03:22:34;;;;;;;25.70;13.83;;;6.00;20.70;;;;;;5032084;28;20679;-62
2021/10/13 03:25:01;;;;;;;28.33;14.87;;;6.00;16.20;;;;;;5031840;28;20656;-62
2021/10/13 03:27:28;;;;;;;29.30;14.37;;;5.90;22.30;;;;;;5031848;28;20267;-62
2021/10/13 03:29:55;;;;;;;27.10;14.83;;;5.90;17.50;;;;;;5031826;28;20226;-61
2021/10/13 03:32:22;;;;;;;28.30;15.07;;;5.90;7.40;;;;;;5031979;28;20208;-62
2021/10/13 03:34:49;;;;;;;28.97;14.30;;;5.90;2.00;;;;;;5031808;28;20209;-62
2021/10/13 03:37:16;;;;;;;29.23;15.27;;;5.80;1.00;;;;;;5031388;28;20217;-61
2021/10/13 03:39:46;;;;;;;29.13;14.93;;;5.70;6.60;;;;;;5031779;28;20237;-62
2021/10/13 03:42:13;;;;;;;31.93;15.83;;;5.70;19.20;;;;;;5031878;28;20206;-62
2021/10/13 03:44:39;;;;;;;29.27;15.60;;;5.80;28.70;;;;;;5031104;28;20920;-61
2021/10/13 03:47:06;;;;;;;31.60;15.80;;;5.80;32.10;;;;;;5031618;28;20678;-62
2021/10/13 03:49:33;;;;;;;32.07;15.90;;;5.80;33.10;;;;;;5031766;28;20288;-63
2021/10/13 03:52:00;;;;;;;27.67;15.27;;;5.80;32.00;;;;;;5031767;28;20218;-63
2021/10/13 03:54:27;;;;;;;34.07;15.70;;;5.80;29.90;;;;;;5031529;28;20667;-62
2021/10/13 03:56:55;;;;;;;37.30;20.93;;;5.70;29.50;;;;;;5031330;28;20264;-62
2021/10/13 03:59:22;;;;;;;30.57;16.73;;;5.70;24.50;;;;;;5031424;28;20234;-62
2021/10/13 04:01:49;;;;;;;28.37;15.63;;;5.70;22.50;;;;;;5031817;28;20252;-62
2021/10/13 04:04:15;;;;;;;26.37;14.83;;;5.70;25.40;;;;;;5031479;28;20683;-62
2021/10/13 04:06:42;;;;;;;31.93;15.77;;;5.70;30.30;;;;;;5031315;28;20240;-61
2021/10/13 04:09:09;;;;;;;27.07;15.10;;;5.70;35.50;;;;;;5031526;28;20279;-62
2021/10/13 04:11:35;;;;;;;32.77;16.53;;;5.70;33.50;;;;;;5031383;28;20214;-62
2021/10/13 04:14:03;;;;;;;35.20;16.67;;;5.70;41.90;;;;;;5031662;28;20205;-62
2021/10/13 04:16:30;;;;;;;29.53;16.10;;;5.70;40.90;;;;;;5028897;28;20210;-62
2021/10/13 04:18:57;;;;;;;30.63;16.53;;;5.70;38.20;;;;;;5031422;28;20260;-62
2021/10/13 04:21:24;;;;;;;28.07;16.40;;;5.60;39.00;;;;;;5031252;28;20213;-62
2021/10/13 04:23:50;;;;;;;34.33;16.47;;;5.70;46.80;;;;;;5031190;28;20208;-61
2021/10/13 04:26:17;;;;;;;32.30;17.00;;;5.70;46.00;;;;;;5030813;28;20269;-65
2021/10/13 04:28:44;;;;;;;34.80;17.50;;;5.60;47.60;;;;;;5038248;28;20630;-66
2021/10/13 04:31:11;;;;;;;34.10;17.10;;;5.60;51.90;;;;;;5039051;28;20284;-62
2021/10/13 04:33:38;;;;;;;35.47;17.30;;;5.60;52.30;;;;;;5034738;28;20210;-62
2021/10/13 04:36:05;;;;;;;41.57;18.20;;;5.50;58.90;;;;;;5034393;28;20280;-62
2021/10/13 04:38:32;;;;;;;34.00;18.40;;;5.60;65.40;;;;;;5034586;28;20553;-62
2021/10/13 04:40:58;;;;;;;32.97;18.83;;;5.60;69.30;;;;;;5039312;28;20300;-63
2021/10/13 04:43:25;;;;;;;34.17;18.87;;;5.70;84.20;;;;;;5034871;28;20265;-61
2021/10/13 04:45:52;;;;;;;30.43;17.73;;;5.80;80.00;;;;;;5034518;28;20287;-61
2021/10/13 04:48:20;;;;;;;37.40;18.60;;;5.90;81.70;;;;;;5034606;28;20698;-61
2021/10/13 04:50:47;;;;;;;39.97;18.93;;;5.90;86.30;;;;;;5034148;28;20226;-62
2021/10/13 04:53:14;;;;;;;35.77;18.97;;;5.90;89.10;;;;;;5034538;28;20206;-62
2021/10/13 04:55:41;;;;;;;35.43;19.13;;;6.00;94.40;;;;;;5034258;28;20207;-62
2021/10/13 04:58:07;;;;;;;33.17;18.33;;;6.10;97.70;;;;;;5034593;28;20283;-62
2021/10/13 05:00:34;;;;;;;33.90;18.53;;;6.10;95.50;;;;;;5033822;28;20276;-61
2021/10/13 05:03:00;;;;;;;34.10;18.47;;;6.10;97.20;;;;;;5034533;28;20256;-59
2021/10/13 05:05:28;;;;;;;34.33;18.67;;;6.10;98.80;;;;;;5034388;28;20211;-60
2021/10/13 05:07:55;;;;;;;32.97;17.67;;;6.20;98.70;;;;;;5034287;28;20237;-62
2021/10/13 05:10:22;;;;;;;43.10;18.80;;;6.20;99.90;;;;;;5034176;28;20237;-60
2021/10/13 05:12:48;;;;;;;36.33;18.50;;;6.20;99.90;;;;;;5034343;28;20283;-62
2021/10/13 05:15:15;;;;;;;31.63;17.57;;;6.30;99.90;;;;;;5033777;28;20687;-62
2021/10/13 05:17:42;;;;;;;33.10;17.93;;;6.30;99.90;;;;;;5034114;28;20456;-61
2021/10/13 05:20:10;;;;;;;32.27;17.60;;;6.30;99.90;;;;;;5033774;28;20317;-61
2021/10/13 05:22:38;;;;;;;34.77;18.57;;;6.40;99.90;;;;;;5031608;28;20293;-62
2021/10/13 05:25:06;;;;;;;38.60;18.57;;;6.20;99.90;;;;;;5033344;28;20255;-63
2021/10/13 05:27:32;;;;;;;39.00;19.23;;;6.20;99.90;;;;;;5034312;28;20632;-63
2021/10/13 05:29:59;;;;;;;40.07;19.23;;;6.20;99.90;;;;;;5033813;28;20264;-63
2021/10/13 05:32:25;;;;;;;38.37;19.97;;;6.20;99.90;;;;;;5043218;28;20212;-64
2021/10/13 05:34:52;;;;;;;39.33;20.07;;;6.20;99.90;;;;;;5039855;28;20741;-60
2021/10/13 05:37:19;;;;;;;45.37;20.50;;;6.20;99.90;;;;;;5036543;28;20202;-61
2021/10/13 05:39:47;;;;;;;35.07;19.17;;;6.20;99.90;;;;;;5033749;28;20233;-61
2021/10/13 05:42:14;;;;;;;35.10;19.03;;;6.20;99.90;;;;;;5033062;28;20237;-61
2021/10/13 05:44:41;;;;;;;33.23;19.00;;;6.30;99.90;;;;;;5032787;28;20272;-61
2021/10/13 05:47:07;;;;;;;38.07;19.37;;;6.20;99.90;;;;;;5033647;28;20202;-61
2021/10/13 05:49:34;;;;;;;36.77;20.17;;;6.20;99.90;;;;;;5033245;28;20234;-61
2021/10/13 05:52:01;;;;;;;35.23;19.50;;;6.20;99.90;;;;;;5032747;28;20254;-60
2021/10/13 05:54:28;;;;;;;34.80;19.47;;;6.30;99.90;;;;;;5033361;28;20670;-61
2021/10/13 05:56:55;;;;;;;37.57;19.27;;;6.30;99.90;;;;;;5033171;28;20203;-61
2021/10/13 05:59:22;;;;;;;42.77;20.20;;;6.30;99.90;;;;;;5033163;28;20222;-61
2021/10/13 06:01:49;;;;;;;33.80;19.57;;;6.30;99.90;;;;;;5033094;28;20210;-60
2021/10/13 06:04:15;;;;;;;37.37;19.73;;;6.40;99.90;;;;;;5034952;28;20732;-61
2021/10/13 06:06:42;;;;;;;33.97;19.30;;;6.40;99.90;;;;;;5052883;28;20205;-62
2021/10/13 06:09:09;;;;;;;36.43;19.33;;;6.40;99.90;;;;;;5053101;28;20218;-63
2021/10/13 06:11:36;;;;;;;37.27;19.10;;;6.40;99.90;;;;;;5052895;28;20205;-61
2021/10/13 06:14:04;;;;;;;35.57;19.40;;;6.40;99.90;;;;;;5052950;28;20217;-60
2021/10/13 06:16:31;;;;;;;40.20;20.27;;;6.30;99.90;;;;;;5037889;28;20897;-61
2021/10/13 06:18:57;;;;;;;42.97;21.27;;;6.40;99.90;;;;;;5032400;28;20213;-60
2021/10/13 06:21:25;;;;;;;36.20;20.10;;;6.40;99.90;;;;;;5032619;28;20203;-61
2021/10/13 06:23:51;;;;;;;38.57;19.27;;;6.40;99.90;;;;;;5032379;28;20694;-61
2021/10/13 06:26:18;;;;;;;40.83;21.93;;;6.50;99.90;;;;;;5044267;28;20214;-61
2021/10/13 06:28:45;;;;;;;40.03;20.30;;;6.50;99.90;;;;;;5052115;28;20760;-62
2021/10/13 06:31:13;;;;;;;37.73;20.83;;;6.60;99.90;;;;;;5052010;28;20733;-61
2021/10/13 06:33:39;;;;;;;44.53;20.13;;;6.60;99.90;;;;;;5052477;28;20450;-61
2021/10/13 06:36:07;;;;;;;39.60;20.53;;;6.60;99.90;;;;;;5051360;28;20213;-61
2021/10/13 06:38:34;;;;;;;37.07;20.57;;;6.70;99.90;;;;;;5052169;28;20248;-61
2021/10/13 06:41:01;;;;;;;37.50;20.03;;;6.70;99.90;;;;;;5052193;28;20246;-62
2021/10/13 06:43:28;;;;;;;37.57;19.87;;;6.70;99.90;;;;;;5052302;28;20263;-60
2021/10/13 06:45:55;;;;;;;38.70;21.03;;;6.80;99.90;;;;;;5040701;28;20424;-61
2021/10/13 06:48:23;;;;;;;48.33;21.13;;;6.80;99.90;;;;;;5031892;28;20210;-61
2021/10/13 06:50:51;;;;;;;39.97;21.83;;;6.80;99.90;;;;;;5032020;28;20230;-58
2021/10/13 06:53:17;;;;;;;40.13;20.43;;;6.90;99.90;;;;;;5031938;28;20293;-61
2021/10/13 06:55:45;;;;;;;38.13;20.67;;;6.80;99.90;;;;;;5031699;28;20268;-60
2021/10/13 06:58:12;;;;;;;38.50;21.67;;;6.90;99.90;;;;;;5031250;28;20206;-61
2021/10/13 07:00:39;;;;;;;39.83;20.40;;;6.80;99.90;;;;;;5032123;28;20230;-60
2021/10/13 07:03:07;;;;;;;40.13;21.27;;;6.90;99.90;;;;;;5032000;28;20215;-60
2021/10/13 07:05:35;;;;;;;44.87;22.07;;;6.90;99.90;;;;;;5031531;28;20289;-61
2021/10/13 07:08:02;;;;;;;44.43;23.37;;;7.00;99.90;;;;;;5031473;28;20210;-61
2021/10/13 07:10:29;;;;;;;38.80;21.73;;;7.10;99.90;;;;;;5031659;28;20234;-61
2021/10/13 07:12:55;;;;;;;36.63;21.77;;;7.20;99.90;;;;;;5031471;28;20206;-60
2021/10/13 07:15:22;;;;;;;45.00;21.10;;;7.20;99.90;;;;;;5031342;28;20261;-60
2021/10/13 07:17:49;;;;;;;38.50;20.93;;;7.20;99.90;;;;;;5031280;28;20298;-61
2021/10/13 07:20:16;;;;;;;37.37;20.30;;;7.30;99.90;;;;;;5031525;28;20222;-62
2021/10/13 07:22:44;;;;;;;36.83;21.13;;;7.40;99.90;;;;;;5031578;28;20260;-61
2021/10/13 07:25:11;;;;;;;37.43;21.70;;;7.40;99.90;;;;;;5031132;28;20210;-60
2021/10/13 07:27:37;;;;;;;32.20;19.87;;;7.50;99.90;;;;;;5031249;28;20218;-54
2021/10/13 07:30:05;;;;;;;38.50;20.40;;;7.50;99.90;;;;;;5031433;28;20286;-59
2021/10/13 07:32:34;;;;;;;43.20;21.30;;;7.50;99.90;;;;;;5031164;28;20209;-58
2021/10/13 07:35:01;;;;;;;40.60;21.07;;;7.60;99.90;;;;;;5030973;28;20677;-62
2021/10/13 07:37:28;;;;;;;40.43;20.70;;;7.60;99.90;;;;;;5031061;28;20271;-62
2021/10/13 07:39:56;;;;;;;33.00;20.93;;;7.70;99.90;;;;;;5030959;28;20236;-61
2021/10/13 07:42:23;;;;;;;39.07;21.43;;;7.70;99.90;;;;;;5031502;28;20212;-61
2021/10/13 07:44:50;;;;;;;37.10;21.30;;;7.80;96.70;;;;;;5031191;28;20223;-61
2021/10/13 07:47:17;;;;;;;36.63;21.43;;;7.90;95.40;;;;;;5045935;28;20231;-60
2021/10/13 07:49:43;;;;;;;36.23;21.97;;;7.90;81.40;;;;;;5050997;28;20319;-61
2021/10/13 07:52:10;;;;;;;36.63;20.40;;;7.90;47.50;;;;;;5051108;28;20210;-60
2021/10/13 07:54:37;;;;;;;28.67;19.07;;;8.00;12.30;;;;;;5050450;28;20222;-61
2021/10/13 07:57:05;;;;;;;39.53;20.07;;;8.00;1.00;;;;;;5051082;28;20263;-63
2021/10/13 07:59:31;;;;;;;39.10;19.23;;;8.00;1.00;;;;;;5051157;28;20279;-64
2021/10/13 08:01:58;;;;;;;33.50;18.93;;;8.10;1.00;;;;;;5051105;28;20216;-64
2021/10/13 08:04:25;;;;;;;29.57;18.17;;;8.10;1.00;;;;;;5051729;28;20207;-65
2021/10/13 08:06:52;;;;;;;34.67;17.73;;;8.10;1.00;;;;;;5054450;28;20210;-63
2021/10/13 08:09:19;;;;;;;32.40;18.17;;;8.10;1.00;;;;;;5055117;28;20649;-62
2021/10/13 08:11:46;;;;;;;30.97;19.13;;;8.00;1.00;;;;;;5054921;28;20229;-63
2021/10/13 08:14:14;;;;;;;30.40;18.73;;;8.00;1.00;;;;;;5055309;28;20290;-64
2021/10/13 08:16:41;;;;;;;29.70;19.17;;;8.20;1.00;;;;;;5054547;28;20214;-64
2021/10/13 08:19:08;;;;;;;39.13;20.83;;;8.20;1.00;;;;;;5054981;28;20608;-64
2021/10/13 08:21:34;;;;;;;32.27;20.80;;;8.30;1.00;;;;;;5055013;28;20588;-62
2021/10/13 08:24:01;;;;;;;36.10;20.40;;;8.30;1.00;;;;;;5055546;28;20215;-62
2021/10/13 08:26:28;;;;;;;33.13;19.90;;;8.30;1.00;;;;;;5054655;28;20250;-62
2021/10/13 08:28:55;;;;;;;35.63;21.20;;;8.20;1.00;;;;;;5054709;28;20215;-62
2021/10/13 08:31:23;;;;;;;32.93;20.97;;;8.30;1.00;;;;;;5054526;28;20326;-60
2021/10/13 08:33:52;;;;;;;32.53;22.67;;;8.30;1.00;;;;;;5054659;28;20583;-61
2021/10/13 08:36:19;;;;;;;31.80;20.80;;;8.40;1.00;;;;;;5053731;28;20208;-59
2021/10/13 08:38:45;;;;;;;30.90;21.50;;;8.40;1.00;;;;;;5054286;28;20203;-58
2021/10/13 08:41:12;;;;;;;37.57;23.87;;;8.50;1.00;;;;;;5054136;28;20778;-60
2021/10/13 08:43:39;;;;;;;37.30;23.57;;;8.50;99.90;;;;;;5054405;28;20211;-60
2021/10/13 08:46:06;;;;;;;33.70;22.77;;;8.60;99.90;;;;;;5053537;28;20673;-61
2021/10/13 08:48:34;;;;;;;32.77;21.90;;;8.60;99.90;;;;;;5050023;28;20209;-65
2021/10/13 08:51:00;;;;;;;31.40;21.23;;;8.70;99.90;;;;;;5033987;28;20763;-62
2021/10/13 08:53:27;;;;;;;31.57;22.13;;;8.80;99.90;;;;;;5034051;28;20259;-62
2021/10/13 08:55:55;;;;;;;31.27;21.37;;;8.80;99.90;;;;;;5033946;28;20258;-64
2021/10/13 08:58:23;;;;;;;36.17;23.87;;;8.90;99.90;;;;;;5033991;28;20325;-64
2021/10/13 09:00:51;;;;;;;35.70;23.20;;;8.90;99.90;;;;;;5033855;28;20219;-61
2021/10/13 09:03:29;;;;;;;29.00;22.00;;;9.10;99.90;;;;;;5033702;28;20216;-59
2021/10/13 09:05:58;;;;;;;32.43;21.20;;;9.30;99.90;;;;;;5033667;28;20260;-60
2021/10/13 09:08:25;;;;;;;26.77;20.00;;;9.40;99.90;;;;;;5034115;28;20413;-59
2021/10/13 09:10:55;;;;;;;26.10;18.83;;;9.40;99.90;;;;;;5033832;28;20238;-61
2021/10/13 09:13:22;;;;;;;31.93;20.60;;;9.50;99.90;;;;;;5034006;28;20263;-61
2021/10/13 09:15:51;;;;;;;25.57;17.73;;;9.50;13.30;;;;;;5032421;28;20553;-61
2021/10/13 09:18:22;;;;;;;34.10;18.37;;;9.40;1.00;;;;;;5033088;28;20213;-59
2021/10/13 09:20:50;;;;;;;30.40;20.53;;;9.30;1.00;;;;;;5033543;28;20222;-61
2021/10/13 09:23:21;;;;;;;28.63;20.00;;;9.40;1.00;;;;;;5033516;28;20297;-57
2021/10/13 09:26:08;;;;;;;27.97;19.70;;;9.50;1.00;;;;;;5033199;28;20234;-61
2021/10/13 09:28:35;;;;;;;32.57;20.50;;;9.70;99.90;;;;;;5033406;28;20284;-60
2021/10/13 09:31:22;;;;;;;26.63;18.23;;;9.90;1.00;;;;;;5033313;28;20726;-61
2021/10/13 09:33:56;;;;;;;24.80;17.40;;;9.90;1.00;;;;;;5033265;28;20206;-60
2021/10/13 09:36:32;;;;;;;27.53;18.47;;;10.00;1.00;;;;;;5033025;28;20205;-61
2021/10/13 09:39:04;;;;;;;23.20;16.60;;;9.90;1.00;;;;;;5033342;28;20214;-61
2021/10/13 09:41:31;;;;;;;28.00;17.57;;;10.00;1.00;;;;;;5033304;28;20268;-60
2021/10/13 09:44:13;;;;;;;27.37;18.87;;;10.00;1.00;;;;;;5033280;28;20206;-61
2021/10/13 09:46:40;;;;;;;29.97;17.27;;;10.10;1.00;;;;;;5032794;28;20293;-62
2021/10/13 09:49:06;;;;;;;27.37;17.50;;;10.10;99.90;;;;;;5032784;28;20620;-61
2021/10/13 09:51:37;;;;;;;26.40;17.13;;;10.20;99.90;;;;;;5033161;28;20226;-61
2021/10/13 09:54:09;;;;;;;20.97;15.87;;;10.40;99.90;;;;;;5033229;28;20637;-61
2021/10/13 09:56:38;;;;;;;28.30;16.23;;;10.40;99.90;;;;;;5032562;28;20237;-63
2021/10/13 09:59:13;;;;;;;26.37;16.60;;;10.50;99.90;;;;;;5034346;28;20210;-64
2021/10/13 10:01:42;;;;;;;23.53;15.57;;;10.50;99.90;;;;;;5033975;28;20191;-62
2021/10/13 10:04:12;;;;;;;24.27;14.87;;;10.60;99.90;;;;;;5032880;28;20634;-63
2021/10/13 10:06:40;;;;;;;25.97;14.90;;;10.60;1.00;;;;;;5032239;28;20202;-63
2021/10/13 10:09:08;;;;;;;23.97;15.60;;;10.60;99.90;;;;;;5032471;28;20210;-62
2021/10/13 10:11:37;;;;;;;24.93;15.80;;;10.60;1.00;;;;;;5032543;28;20230;-61
2021/10/13 10:14:05;;;;;;;23.60;14.40;;;10.70;1.00;;;;;;5032156;28;20206;-60
2021/10/13 10:16:34;;;;;;;22.80;15.87;;;10.70;75.00;;;;;;5032288;28;20207;-61
2021/10/13 10:19:20;;;;;;;21.80;14.70;;;10.80;99.90;;;;;;5032615;28;20597;-59
2021/10/13 10:21:53;;;;;;;20.63;13.67;;;10.90;99.90;;;;;;5032606;28;20657;-58
2021/10/13 10:24:29;;;;;;;21.07;13.00;;;11.00;99.90;;;;;;5032462;28;20222;-60
2021/10/13 10:27:27;;;;;;;25.00;13.10;;;11.10;99.90;;;;;;5031692;28;20202;-60
2021/10/13 10:30:14;;;;;;;17.67;12.70;;;11.30;99.90;;;;;;5032042;28;20226;-61
2021/10/13 10:32:42;;;;;;;17.87;11.77;;;11.30;99.90;;;;;;5032560;28;20289;-61
2021/10/13 10:35:14;;;;;;;16.67;11.77;;;11.30;67.80;;;;;;5035832;28;20212;-61
2021/10/13 10:37:42;;;;;;;20.73;11.40;;;11.40;99.90;;;;;;5051693;28;20201;-60
2021/10/13 10:40:16;;;;;;;18.27;12.00;;;11.40;1.00;;;;;;5051862;28;20244;-61
2021/10/13 10:42:58;;;;;;;19.93;12.73;;;11.50;99.90;;;;;;5051891;28;20221;-60
2021/10/13 10:45:27;;;;;;;18.27;11.37;;;11.70;99.90;;;;;;5051534;28;20208;-61
2021/10/13 10:48:06;;;;;;;17.67;11.30;;;11.80;1.00;;;;;;5051623;28;20345;-61
2021/10/13 10:50:39;;;;;;;15.43;10.60;;;11.80;99.90;;;;;;5051727;28;20318;-61
2021/10/13 10:53:21;;;;;;;19.53;9.73;;;12.00;99.90;;;;;;5052001;28;20632;-62
2021/10/13 10:55:51;;;;;;;17.23;9.30;;;12.00;99.90;;;;;;5051092;28;20240;-61
2021/10/13 10:58:22;;;;;;;19.83;8.67;;;12.00;13.20;;;;;;5051257;28;20210;-63
2021/10/13 11:01:00;;;;;;;15.20;8.27;;;12.00;1.00;;;;;;5051637;28;20232;-62
2021/10/13 11:03:34;;;;;;;14.80;8.10;;;11.90;1.00;;;;;;5051194;28;20213;-60
2021/10/13 11:06:17;;;;;;;13.73;8.00;;;12.00;1.00;;;;;;5050926;28;20205;-61
2021/10/13 11:09:00;;;;;;;17.00;8.63;;;12.10;1.00;;;;;;5051611;28;20213;-61
2021/10/13 11:11:29;;;;;;;15.00;7.73;;;12.40;99.90;;;;;;5051441;28;20306;-60
2021/10/13 11:14:05;;;;;;;12.63;7.80;;;12.60;99.90;;;;;;5051659;28;20201;-60
2021/10/13 11:16:33;;;;;;;15.63;7.70;;;12.80;99.90;;;;;;5050913;28;20209;-61
2021/10/13 11:19:11;;;;;;;19.97;8.10;;;13.00;99.90;;;;;;5051512;28;20210;-60
2021/10/13 11:21:38;;;;;;;15.93;7.43;;;13.00;99.90;;;;;;5051397;28;20236;-61
2021/10/13 11:24:06;;;;;;;11.67;6.60;;;12.80;23.50;;;;;;5051568;28;20735;-62
2021/10/13 11:26:34;;;;;;;13.70;7.67;;;12.50;5.50;;;;;;5050913;28;20258;-60
2021/10/13 11:29:01;;;;;;;10.73;7.57;;;12.40;17.20;;;;;;5050861;28;20205;-61
2021/10/13 11:31:28;;;;;;;15.97;9.13;;;12.40;68.50;;;;;;5051342;28;20225;-60
2021/10/13 11:34:06;;;;;;;14.33;10.00;;;12.40;99.90;;;;;;5051543;28;20205;-61
2021/10/13 11:36:32;;;;;;;18.90;10.53;;;12.40;99.90;;;;;;5050914;28;20225;-63
2021/10/13 11:38:59;;;;;;;18.03;11.03;;;12.40;99.90;;;;;;5050334;28;20205;-63
2021/10/13 11:41:31;;;;;;;24.60;12.47;;;12.50;99.90;;;;;;5050950;28;20274;-64
2021/10/13 11:44:04;;;;;;;20.50;12.80;;;12.40;99.90;;;;;;5051336;28;20209;-63
2021/10/13 11:46:31;;;;;;;18.73;12.73;;;12.20;99.90;;;;;;5050580;28;20308;-63
2021/10/13 11:49:03;;;;;;;17.37;12.73;;;12.20;99.90;;;;;;5050882;28;20637;-61
2021/10/13 11:51:30;;;;;;;15.53;12.30;;;12.20;99.90;;;;;;5050936;28;20319;-65
2021/10/13 11:53:56;;;;;;;22.77;13.00;;;12.30;99.90;;;;;;5051190;28;20210;-64
2021/10/13 11:56:23;;;;;;;17.07;12.83;;;12.30;1.00;;;;;;5050366;28;20613;-64
2021/10/13 11:58:50;;;;;;;19.70;11.77;;;12.30;99.90;;;;;;5050615;28;20201;-61
2021/10/13 12:01:26;;;;;;;17.73;12.17;;;12.40;99.90;;;;;;5051060;28;20229;-63
2021/10/13 12:03:53;;;;;;;22.43;12.50;;;12.50;1.00;;;;;;5051142;28;20205;-62
2021/10/13 12:06:19;;;;;;;18.87;12.17;;;12.60;99.90;;;;;;5049852;28;20205;-63
2021/10/13 12:08:46;;;;;;;19.90;12.57;;;12.70;99.90;;;;;;5050109;28;20266;-63
2021/10/13 12:11:16;;;;;;;15.57;11.83;;;12.70;99.90;;;;;;5051009;28;20572;-60
2021/10/13 12:13:44;;;;;;;19.47;11.67;;;12.80;99.90;;;;;;5050909;28;20206;-62
2021/10/13 12:16:13;;;;;;;14.90;10.57;;;12.80;99.90;;;;;;5050380;28;20673;-60
2021/10/13 12:18:45;;;;;;;16.13;10.03;;;12.70;99.90;;;;;;5050322;28;20202;-62
2021/10/13 12:21:15;;;;;;;13.03;10.33;;;12.60;99.90;;;;;;5050522;28;20246;-64
2021/10/13 12:23:44;;;;;;;16.60;11.53;;;12.50;99.90;;;;;;5050997;28;20245;-63
2021/10/13 12:26:13;;;;;;;15.90;10.97;;;12.40;99.90;;;;;;5050324;28;20244;-62
2021/10/13 12:28:40;;;;;;;17.40;11.83;;;12.20;99.90;;;;;;5050301;28;20639;-64
2021/10/13 12:31:09;;;;;;;20.23;11.67;;;12.10;99.90;;;;;;5050680;28;20225;-63
2021/10/13 12:33:43;;;;;;;15.63;10.30;;;11.90;99.90;;;;;;5050667;28;20618;-63
2021/10/13 12:36:12;;;;;;;17.57;9.77;;;11.90;99.90;;;;;;5050056;28;20669;-63
2021/10/13 12:38:50;;;;;;;13.03;9.00;;;11.80;99.90;;;;;;5050457;28;20232;-63
2021/10/13 12:41:17;;;;;;;12.87;8.60;;;11.80;99.90;;;;;;5050714;28;20243;-63
2021/10/13 12:43:47;;;;;;;15.60;8.67;;;11.80;1.00;;;;;;5050759;28;20202;-65
2021/10/13 12:46:31;;;;;;;13.60;8.57;;;11.70;1.00;;;;;;5050381;28;20211;-62
2021/10/13 12:49:10;;;;;;;13.23;8.17;;;11.70;1.00;;;;;;5049990;28;20212;-66
2021/10/13 12:51:48;;;;;;;11.30;6.50;;;11.80;1.00;;;;;;5052471;28;20205;-64